sensor_id;sensor_type;location;lat;lon;timestamp;P1;durP1;ratioP1;P2;durP2;ratioP2
3427;SDS011;1727;42.624;23.406;2022-12-16T00:02:20;120.47;;;61.73;;
3427;SDS011;1727;42.624;23.406;2022-12-16T00:04:49;137.40;;;66.30;;
3427;SDS011;1727;42.624;23.406;2022-12-16T00:07:15;122.33;;;59.37;;
3427;SDS011;1727;42.624;23.406;2022-12-16T00:09:42;123.27;;;62.37;;
3427;SDS011;1727;42.624;23.406;2022-12-16T00:12:09;116.00;;;60.67;;
3427;SDS011;1727;42.624;23.406;2022-12-16T00:14:35;115.07;;;65.13;;
3427;SDS011;1727;42.624;23.406;2022-12-16T00:17:02;121.87;;;61.43;;
3427;SDS011;1727;42.624;23.406;2022-12-16T00:19:29;123.67;;;61.70;;
3427;SDS011;1727;42.624;23.406;2022-12-16T00:21:58;129.63;;;62.20;;
3427;SDS011;1727;42.624;23.406;2022-12-16T00:24:24;143.57;;;66.20;;
3427;SDS011;1727;42.624;23.406;2022-12-16T00:26:51;135.40;;;63.57;;
3427;SDS011;1727;42.624;23.406;2022-12-16T00:29:18;140.70;;;65.67;;
3427;SDS011;1727;42.624;23.406;2022-12-16T00:31:45;133.30;;;66.57;;
3427;SDS011;1727;42.624;23.406;2022-12-16T00:34:12;134.47;;;69.20;;
3427;SDS011;1727;42.624;23.406;2022-12-16T00:36:39;134.67;;;73.67;;
3427;SDS011;1727;42.624;23.406;2022-12-16T00:39:07;184.03;;;78.73;;
3427;SDS011;1727;42.624;23.406;2022-12-16T00:41:34;139.27;;;68.40;;
3427;SDS011;1727;42.624;23.406;2022-12-16T00:44:02;141.13;;;76.27;;
3427;SDS011;1727;42.624;23.406;2022-12-16T00:46:29;173.43;;;84.57;;
3427;SDS011;1727;42.624;23.406;2022-12-16T00:48:56;144.23;;;74.83;;
3427;SDS011;1727;42.624;23.406;2022-12-16T00:51:23;166.73;;;81.53;;
3427;SDS011;1727;42.624;23.406;2022-12-16T00:53:50;167.23;;;75.73;;
3427;SDS011;1727;42.624;23.406;2022-12-16T00:56:18;148.57;;;73.87;;
3427;SDS011;1727;42.624;23.406;2022-12-16T00:58:45;169.00;;;77.57;;
3427;SDS011;1727;42.624;23.406;2022-12-16T01:01:12;159.60;;;76.37;;
3427;SDS011;1727;42.624;23.406;2022-12-16T01:03:39;173.23;;;78.53;;
3427;SDS011;1727;42.624;23.406;2022-12-16T01:06:06;175.77;;;85.33;;
3427;SDS011;1727;42.624;23.406;2022-12-16T01:08:34;217.97;;;87.33;;
3427;SDS011;1727;42.624;23.406;2022-12-16T01:11:01;205.40;;;88.90;;
3427;SDS011;1727;42.624;23.406;2022-12-16T01:13:29;243.70;;;86.17;;
3427;SDS011;1727;42.624;23.406;2022-12-16T01:15:58;239.27;;;90.60;;
3427;SDS011;1727;42.624;23.406;2022-12-16T01:18:26;320.03;;;96.63;;
3427;SDS011;1727;42.624;23.406;2022-12-16T01:20:53;246.67;;;93.47;;
3427;SDS011;1727;42.624;23.406;2022-12-16T01:23:19;230.57;;;91.57;;
3427;SDS011;1727;42.624;23.406;2022-12-16T01:25:48;207.23;;;90.93;;
3427;SDS011;1727;42.624;23.406;2022-12-16T01:28:18;228.07;;;86.27;;
3427;SDS011;1727;42.624;23.406;2022-12-16T01:30:46;301.03;;;89.90;;
3427;SDS011;1727;42.624;23.406;2022-12-16T01:33:12;262.87;;;84.60;;
3427;SDS011;1727;42.624;23.406;2022-12-16T01:35:39;239.87;;;82.97;;
3427;SDS011;1727;42.624;23.406;2022-12-16T01:38:07;217.47;;;73.80;;
3427;SDS011;1727;42.624;23.406;2022-12-16T01:40:34;152.43;;;71.03;;
3427;SDS011;1727;42.624;23.406;2022-12-16T01:43:00;126.20;;;68.93;;
3427;SDS011;1727;42.624;23.406;2022-12-16T01:45:29;192.13;;;71.80;;
3427;SDS011;1727;42.624;23.406;2022-12-16T01:48:00;194.53;;;72.20;;
3427;SDS011;1727;42.624;23.406;2022-12-16T01:50:31;177.30;;;67.17;;
3427;SDS011;1727;42.624;23.406;2022-12-16T01:52:59;219.97;;;70.83;;
3427;SDS011;1727;42.624;23.406;2022-12-16T01:55:31;261.57;;;73.23;;
3427;SDS011;1727;42.624;23.406;2022-12-16T01:58:03;287.43;;;77.87;;
3427;SDS011;1727;42.624;23.406;2022-12-16T02:00:33;227.30;;;75.17;;
3427;SDS011;1727;42.624;23.406;2022-12-16T02:03:04;219.50;;;72.70;;
3427;SDS011;1727;42.624;23.406;2022-12-16T02:05:32;203.27;;;73.67;;
3427;SDS011;1727;42.624;23.406;2022-12-16T02:08:05;274.50;;;70.30;;
3427;SDS011;1727;42.624;23.406;2022-12-16T02:10:38;230.27;;;68.83;;
3427;SDS011;1727;42.624;23.406;2022-12-16T02:13:18;139.07;;;62.33;;
3427;SDS011;1727;42.624;23.406;2022-12-16T02:15:53;152.33;;;62.30;;
3427;SDS011;1727;42.624;23.406;2022-12-16T02:18:32;112.53;;;57.20;;
3427;SDS011;1727;42.624;23.406;2022-12-16T02:21:25;115.27;;;55.90;;
3427;SDS011;1727;42.624;23.406;2022-12-16T02:30:07;89.20;;;46.80;;
3427;SDS011;1727;42.624;23.406;2022-12-16T02:32:56;106.03;;;48.43;;
3427;SDS011;1727;42.624;23.406;2022-12-16T02:35:32;151.60;;;48.23;;
3427;SDS011;1727;42.624;23.406;2022-12-16T02:38:07;155.00;;;46.63;;
3427;SDS011;1727;42.624;23.406;2022-12-16T02:40:44;108.17;;;44.67;;
3427;SDS011;1727;42.624;23.406;2022-12-16T02:43:18;122.20;;;43.80;;
3427;SDS011;1727;42.624;23.406;2022-12-16T02:45:57;191.17;;;47.50;;
3427;SDS011;1727;42.624;23.406;2022-12-16T02:48:24;125.97;;;47.23;;
3427;SDS011;1727;42.624;23.406;2022-12-16T02:50:51;94.80;;;45.70;;
3427;SDS011;1727;42.624;23.406;2022-12-16T02:53:19;119.17;;;47.73;;
3427;SDS011;1727;42.624;23.406;2022-12-16T02:55:48;94.77;;;45.47;;
3427;SDS011;1727;42.624;23.406;2022-12-16T02:58:23;100.27;;;43.30;;
3427;SDS011;1727;42.624;23.406;2022-12-16T03:00:56;126.20;;;40.97;;
3427;SDS011;1727;42.624;23.406;2022-12-16T03:03:31;82.67;;;42.83;;
3427;SDS011;1727;42.624;23.406;2022-12-16T03:06:03;94.37;;;43.40;;
3427;SDS011;1727;42.624;23.406;2022-12-16T03:08:31;84.53;;;41.10;;
3427;SDS011;1727;42.624;23.406;2022-12-16T03:11:02;67.90;;;36.50;;
3427;SDS011;1727;42.624;23.406;2022-12-16T03:13:34;68.30;;;37.60;;
3427;SDS011;1727;42.624;23.406;2022-12-16T03:16:06;70.23;;;36.87;;
3427;SDS011;1727;42.624;23.406;2022-12-16T03:18:36;85.53;;;38.87;;
3427;SDS011;1727;42.624;23.406;2022-12-16T03:21:06;73.13;;;38.20;;
3427;SDS011;1727;42.624;23.406;2022-12-16T03:23:35;68.30;;;41.43;;
3427;SDS011;1727;42.624;23.406;2022-12-16T03:26:09;82.13;;;40.13;;
3427;SDS011;1727;42.624;23.406;2022-12-16T03:28:43;91.57;;;39.23;;
3427;SDS011;1727;42.624;23.406;2022-12-16T03:31:21;65.33;;;37.20;;
3427;SDS011;1727;42.624;23.406;2022-12-16T03:33:56;106.73;;;40.93;;
3427;SDS011;1727;42.624;23.406;2022-12-16T03:36:29;71.33;;;37.27;;
3427;SDS011;1727;42.624;23.406;2022-12-16T03:39:00;71.47;;;40.43;;
3427;SDS011;1727;42.624;23.406;2022-12-16T03:41:29;72.93;;;40.20;;
3427;SDS011;1727;42.624;23.406;2022-12-16T03:43:57;71.87;;;38.80;;
3427;SDS011;1727;42.624;23.406;2022-12-16T03:46:26;118.60;;;43.73;;
3427;SDS011;1727;42.624;23.406;2022-12-16T03:48:53;93.73;;;43.47;;
3427;SDS011;1727;42.624;23.406;2022-12-16T03:51:20;93.37;;;41.73;;
3427;SDS011;1727;42.624;23.406;2022-12-16T03:53:47;95.20;;;43.87;;
3427;SDS011;1727;42.624;23.406;2022-12-16T03:56:14;132.30;;;53.40;;
3427;SDS011;1727;42.624;23.406;2022-12-16T03:58:41;153.90;;;51.87;;
3427;SDS011;1727;42.624;23.406;2022-12-16T04:01:08;117.83;;;48.30;;
3427;SDS011;1727;42.624;23.406;2022-12-16T04:03:36;91.07;;;46.30;;
3427;SDS011;1727;42.624;23.406;2022-12-16T04:06:03;137.83;;;51.77;;
3427;SDS011;1727;42.624;23.406;2022-12-16T04:08:31;98.60;;;50.53;;
3427;SDS011;1727;42.624;23.406;2022-12-16T04:10:57;117.77;;;46.47;;
3427;SDS011;1727;42.624;23.406;2022-12-16T04:13:42;84.57;;;44.60;;
3427;SDS011;1727;42.624;23.406;2022-12-16T04:16:26;85.77;;;41.90;;
3427;SDS011;1727;42.624;23.406;2022-12-16T04:19:15;99.33;;;38.57;;
3427;SDS011;1727;42.624;23.406;2022-12-16T04:22:04;71.33;;;37.53;;
3427;SDS011;1727;42.624;23.406;2022-12-16T04:24:53;96.70;;;38.80;;
3427;SDS011;1727;42.624;23.406;2022-12-16T04:27:20;68.00;;;36.80;;
3427;SDS011;1727;42.624;23.406;2022-12-16T04:29:51;118.00;;;40.27;;
3427;SDS011;1727;42.624;23.406;2022-12-16T04:32:35;76.47;;;37.03;;
3427;SDS011;1727;42.624;23.406;2022-12-16T04:35:21;70.30;;;37.37;;
3427;SDS011;1727;42.624;23.406;2022-12-16T04:38:05;90.67;;;39.97;;
3427;SDS011;1727;42.624;23.406;2022-12-16T04:40:50;96.00;;;40.20;;
3427;SDS011;1727;42.624;23.406;2022-12-16T04:43:34;114.57;;;46.07;;
3427;SDS011;1727;42.624;23.406;2022-12-16T04:46:15;94.47;;;45.23;;
3427;SDS011;1727;42.624;23.406;2022-12-16T04:48:59;96.30;;;42.97;;
3427;SDS011;1727;42.624;23.406;2022-12-16T04:51:45;80.07;;;39.67;;
3427;SDS011;1727;42.624;23.406;2022-12-16T04:54:29;82.60;;;40.00;;
3427;SDS011;1727;42.624;23.406;2022-12-16T04:57:15;86.80;;;42.77;;
3427;SDS011;1727;42.624;23.406;2022-12-16T04:59:59;85.43;;;38.70;;
3427;SDS011;1727;42.624;23.406;2022-12-16T05:02:43;78.27;;;38.50;;
3427;SDS011;1727;42.624;23.406;2022-12-16T05:05:31;99.07;;;45.77;;
3427;SDS011;1727;42.624;23.406;2022-12-16T05:08:16;99.03;;;42.83;;
3427;SDS011;1727;42.624;23.406;2022-12-16T05:11:01;129.27;;;45.00;;
3427;SDS011;1727;42.624;23.406;2022-12-16T05:13:45;109.13;;;45.37;;
3427;SDS011;1727;42.624;23.406;2022-12-16T05:16:29;186.87;;;47.83;;
3427;SDS011;1727;42.624;23.406;2022-12-16T05:19:13;91.03;;;44.23;;
3427;SDS011;1727;42.624;23.406;2022-12-16T05:21:57;109.03;;;44.80;;
3427;SDS011;1727;42.624;23.406;2022-12-16T05:24:42;105.73;;;49.23;;
3427;SDS011;1727;42.624;23.406;2022-12-16T05:27:27;123.20;;;48.30;;
3427;SDS011;1727;42.624;23.406;2022-12-16T05:30:13;126.83;;;46.07;;
3427;SDS011;1727;42.624;23.406;2022-12-16T05:32:57;150.23;;;49.93;;
3427;SDS011;1727;42.624;23.406;2022-12-16T05:35:42;104.70;;;49.87;;
3427;SDS011;1727;42.624;23.406;2022-12-16T05:38:26;124.27;;;46.77;;
3427;SDS011;1727;42.624;23.406;2022-12-16T05:41:13;130.47;;;44.00;;
3427;SDS011;1727;42.624;23.406;2022-12-16T05:43:58;112.00;;;48.00;;
3427;SDS011;1727;42.624;23.406;2022-12-16T05:46:42;187.50;;;54.03;;
3427;SDS011;1727;42.624;23.406;2022-12-16T05:49:26;120.90;;;43.30;;
3427;SDS011;1727;42.624;23.406;2022-12-16T05:52:10;82.53;;;41.77;;
3427;SDS011;1727;42.624;23.406;2022-12-16T05:54:54;105.03;;;46.17;;
3427;SDS011;1727;42.624;23.406;2022-12-16T05:57:39;119.47;;;45.50;;
3427;SDS011;1727;42.624;23.406;2022-12-16T06:00:23;99.20;;;45.87;;
3427;SDS011;1727;42.624;23.406;2022-12-16T06:03:07;112.67;;;51.70;;
3427;SDS011;1727;42.624;23.406;2022-12-16T06:05:52;133.50;;;51.93;;
3427;SDS011;1727;42.624;23.406;2022-12-16T06:08:36;145.70;;;53.40;;
3427;SDS011;1727;42.624;23.406;2022-12-16T06:11:20;142.13;;;56.40;;
3427;SDS011;1727;42.624;23.406;2022-12-16T06:14:05;201.67;;;56.27;;
3427;SDS011;1727;42.624;23.406;2022-12-16T06:16:50;157.87;;;57.60;;
3427;SDS011;1727;42.624;23.406;2022-12-16T06:19:34;108.27;;;51.80;;
3427;SDS011;1727;42.624;23.406;2022-12-16T06:22:18;202.23;;;52.97;;
3427;SDS011;1727;42.624;23.406;2022-12-16T06:25:02;201.33;;;55.90;;
3427;SDS011;1727;42.624;23.406;2022-12-16T06:27:49;134.33;;;51.17;;
3427;SDS011;1727;42.624;23.406;2022-12-16T06:30:35;174.30;;;59.03;;
3427;SDS011;1727;42.624;23.406;2022-12-16T06:33:20;154.77;;;52.10;;
3427;SDS011;1727;42.624;23.406;2022-12-16T06:36:05;128.77;;;51.27;;
3427;SDS011;1727;42.624;23.406;2022-12-16T06:38:49;124.57;;;55.20;;
3427;SDS011;1727;42.624;23.406;2022-12-16T06:41:33;143.17;;;55.37;;
3427;SDS011;1727;42.624;23.406;2022-12-16T06:44:17;221.50;;;69.77;;
3427;SDS011;1727;42.624;23.406;2022-12-16T06:47:02;205.40;;;57.50;;
3427;SDS011;1727;42.624;23.406;2022-12-16T06:49:47;148.90;;;60.10;;
3427;SDS011;1727;42.624;23.406;2022-12-16T06:52:31;120.17;;;57.00;;
3427;SDS011;1727;42.624;23.406;2022-12-16T06:55:15;99.73;;;47.13;;
3427;SDS011;1727;42.624;23.406;2022-12-16T06:57:59;118.50;;;50.50;;
3427;SDS011;1727;42.624;23.406;2022-12-16T07:00:44;112.67;;;50.50;;
3427;SDS011;1727;42.624;23.406;2022-12-16T07:03:30;79.03;;;46.57;;
3427;SDS011;1727;42.624;23.406;2022-12-16T07:06:15;96.30;;;51.60;;
3427;SDS011;1727;42.624;23.406;2022-12-16T07:08:59;177.93;;;56.60;;
3427;SDS011;1727;42.624;23.406;2022-12-16T07:11:43;140.30;;;54.00;;
3427;SDS011;1727;42.624;23.406;2022-12-16T07:14:27;104.97;;;49.50;;
3427;SDS011;1727;42.624;23.406;2022-12-16T07:17:11;154.63;;;56.83;;
3427;SDS011;1727;42.624;23.406;2022-12-16T07:19:56;131.23;;;55.23;;
3427;SDS011;1727;42.624;23.406;2022-12-16T07:22:41;199.60;;;65.07;;
3427;SDS011;1727;42.624;23.406;2022-12-16T07:25:25;131.30;;;54.00;;
3427;SDS011;1727;42.624;23.406;2022-12-16T07:28:09;142.07;;;56.77;;
3427;SDS011;1727;42.624;23.406;2022-12-16T07:30:55;129.47;;;54.37;;
3427;SDS011;1727;42.624;23.406;2022-12-16T07:33:39;157.03;;;67.90;;
3427;SDS011;1727;42.624;23.406;2022-12-16T07:36:25;146.43;;;53.97;;
3427;SDS011;1727;42.624;23.406;2022-12-16T07:39:09;128.03;;;54.67;;
3427;SDS011;1727;42.624;23.406;2022-12-16T07:41:54;96.20;;;50.30;;
3427;SDS011;1727;42.624;23.406;2022-12-16T07:44:38;124.03;;;48.23;;
3427;SDS011;1727;42.624;23.406;2022-12-16T07:47:22;114.17;;;50.13;;
3427;SDS011;1727;42.624;23.406;2022-12-16T07:50:07;122.23;;;50.90;;
3427;SDS011;1727;42.624;23.406;2022-12-16T07:52:56;86.87;;;46.87;;
3427;SDS011;1727;42.624;23.406;2022-12-16T07:55:40;114.63;;;48.57;;
3427;SDS011;1727;42.624;23.406;2022-12-16T07:58:25;102.77;;;46.90;;
3427;SDS011;1727;42.624;23.406;2022-12-16T08:01:09;115.70;;;50.97;;
3427;SDS011;1727;42.624;23.406;2022-12-16T08:03:54;149.73;;;54.83;;
3427;SDS011;1727;42.624;23.406;2022-12-16T08:06:43;128.33;;;54.07;;
3427;SDS011;1727;42.624;23.406;2022-12-16T08:09:29;137.63;;;60.07;;
3427;SDS011;1727;42.624;23.406;2022-12-16T08:12:13;105.57;;;53.83;;
3427;SDS011;1727;42.624;23.406;2022-12-16T08:14:57;130.73;;;54.10;;
3427;SDS011;1727;42.624;23.406;2022-12-16T08:17:41;133.63;;;58.07;;
3427;SDS011;1727;42.624;23.406;2022-12-16T08:20:31;117.77;;;54.30;;
3427;SDS011;1727;42.624;23.406;2022-12-16T08:23:15;147.10;;;58.37;;
3427;SDS011;1727;42.624;23.406;2022-12-16T08:26:00;149.53;;;55.13;;
3427;SDS011;1727;42.624;23.406;2022-12-16T08:28:44;122.40;;;57.43;;
3427;SDS011;1727;42.624;23.406;2022-12-16T08:31:33;97.20;;;49.40;;
3427;SDS011;1727;42.624;23.406;2022-12-16T08:34:18;109.93;;;54.43;;
3427;SDS011;1727;42.624;23.406;2022-12-16T08:37:02;105.80;;;47.97;;
3427;SDS011;1727;42.624;23.406;2022-12-16T08:39:46;96.40;;;46.90;;
3427;SDS011;1727;42.624;23.406;2022-12-16T08:42:32;101.20;;;48.00;;
3427;SDS011;1727;42.624;23.406;2022-12-16T08:45:16;99.30;;;45.20;;
3427;SDS011;1727;42.624;23.406;2022-12-16T08:48:00;101.37;;;50.10;;
3427;SDS011;1727;42.624;23.406;2022-12-16T08:50:44;111.83;;;51.17;;
3427;SDS011;1727;42.624;23.406;2022-12-16T08:53:28;107.00;;;46.53;;
3427;SDS011;1727;42.624;23.406;2022-12-16T08:56:12;93.70;;;50.63;;
3427;SDS011;1727;42.624;23.406;2022-12-16T08:58:58;88.20;;;48.20;;
3427;SDS011;1727;42.624;23.406;2022-12-16T09:01:42;68.33;;;42.50;;
3427;SDS011;1727;42.624;23.406;2022-12-16T09:04:27;81.73;;;45.57;;
3427;SDS011;1727;42.624;23.406;2022-12-16T09:07:11;78.40;;;42.23;;
3427;SDS011;1727;42.624;23.406;2022-12-16T09:09:56;85.40;;;43.47;;
3427;SDS011;1727;42.624;23.406;2022-12-16T09:12:40;70.27;;;43.10;;
3427;SDS011;1727;42.624;23.406;2022-12-16T09:15:25;77.13;;;43.37;;
3427;SDS011;1727;42.624;23.406;2022-12-16T09:18:10;73.93;;;40.63;;
3427;SDS011;1727;42.624;23.406;2022-12-16T09:20:54;70.30;;;40.40;;
3427;SDS011;1727;42.624;23.406;2022-12-16T09:23:38;83.43;;;47.90;;
3427;SDS011;1727;42.624;23.406;2022-12-16T09:26:23;84.03;;;47.70;;
3427;SDS011;1727;42.624;23.406;2022-12-16T09:29:07;85.93;;;46.83;;
3427;SDS011;1727;42.624;23.406;2022-12-16T09:31:52;96.30;;;44.93;;
3427;SDS011;1727;42.624;23.406;2022-12-16T09:34:36;81.67;;;47.63;;
3427;SDS011;1727;42.624;23.406;2022-12-16T09:37:22;74.93;;;46.00;;
3427;SDS011;1727;42.624;23.406;2022-12-16T09:40:07;84.37;;;46.30;;
3427;SDS011;1727;42.624;23.406;2022-12-16T09:42:56;99.77;;;49.50;;
3427;SDS011;1727;42.624;23.406;2022-12-16T09:45:45;87.23;;;47.63;;
3427;SDS011;1727;42.624;23.406;2022-12-16T09:48:40;85.53;;;49.37;;
3427;SDS011;1727;42.624;23.406;2022-12-16T09:51:30;80.87;;;46.97;;
3427;SDS011;1727;42.624;23.406;2022-12-16T09:54:15;94.67;;;46.90;;
3427;SDS011;1727;42.624;23.406;2022-12-16T09:57:02;100.07;;;52.93;;
3427;SDS011;1727;42.624;23.406;2022-12-16T09:59:49;97.83;;;51.00;;
3427;SDS011;1727;42.624;23.406;2022-12-16T10:02:36;84.00;;;48.20;;
3427;SDS011;1727;42.624;23.406;2022-12-16T10:05:24;88.73;;;48.00;;
3427;SDS011;1727;42.624;23.406;2022-12-16T10:08:17;87.07;;;44.37;;
3427;SDS011;1727;42.624;23.406;2022-12-16T10:11:11;78.53;;;45.80;;
3427;SDS011;1727;42.624;23.406;2022-12-16T10:14:03;74.40;;;46.33;;
3427;SDS011;1727;42.624;23.406;2022-12-16T10:16:51;86.83;;;49.53;;
3427;SDS011;1727;42.624;23.406;2022-12-16T10:19:45;88.10;;;47.30;;
3427;SDS011;1727;42.624;23.406;2022-12-16T10:22:38;156.67;;;85.57;;
3427;SDS011;1727;42.624;23.406;2022-12-16T10:25:31;73.87;;;46.00;;
3427;SDS011;1727;42.624;23.406;2022-12-16T10:28:18;466.00;;;276.70;;
3427;SDS011;1727;42.624;23.406;2022-12-16T10:31:11;145.27;;;79.73;;
3427;SDS011;1727;42.624;23.406;2022-12-16T10:33:56;72.33;;;44.67;;
3427;SDS011;1727;42.624;23.406;2022-12-16T10:36:40;71.07;;;42.37;;
3427;SDS011;1727;42.624;23.406;2022-12-16T10:39:28;70.23;;;45.30;;
3427;SDS011;1727;42.624;23.406;2022-12-16T10:42:17;71.47;;;43.93;;
3427;SDS011;1727;42.624;23.406;2022-12-16T10:45:09;74.53;;;42.73;;
3427;SDS011;1727;42.624;23.406;2022-12-16T10:48:00;71.80;;;43.77;;
3427;SDS011;1727;42.624;23.406;2022-12-16T10:50:44;70.00;;;43.10;;
3427;SDS011;1727;42.624;23.406;2022-12-16T10:53:28;61.57;;;39.47;;
3427;SDS011;1727;42.624;23.406;2022-12-16T10:56:21;70.87;;;43.17;;
3427;SDS011;1727;42.624;23.406;2022-12-16T10:59:23;71.50;;;41.90;;
3427;SDS011;1727;42.624;23.406;2022-12-16T11:02:19;66.33;;;40.50;;
3427;SDS011;1727;42.624;23.406;2022-12-16T11:05:27;65.60;;;41.17;;
3427;SDS011;1727;42.624;23.406;2022-12-16T11:08:22;44.40;;;29.67;;
3427;SDS011;1727;42.624;23.406;2022-12-16T11:11:11;48.27;;;30.23;;
3427;SDS011;1727;42.624;23.406;2022-12-16T11:14:12;47.07;;;29.13;;
3427;SDS011;1727;42.624;23.406;2022-12-16T11:17:12;44.97;;;28.47;;
3427;SDS011;1727;42.624;23.406;2022-12-16T11:20:11;44.20;;;26.23;;
3427;SDS011;1727;42.624;23.406;2022-12-16T11:23:14;40.93;;;26.87;;
3427;SDS011;1727;42.624;23.406;2022-12-16T11:26:07;46.80;;;28.80;;
3427;SDS011;1727;42.624;23.406;2022-12-16T11:29:01;42.53;;;29.73;;
3427;SDS011;1727;42.624;23.406;2022-12-16T11:31:50;49.70;;;31.07;;
3427;SDS011;1727;42.624;23.406;2022-12-16T11:34:38;45.43;;;31.60;;
3427;SDS011;1727;42.624;23.406;2022-12-16T11:37:24;59.43;;;35.10;;
3427;SDS011;1727;42.624;23.406;2022-12-16T11:40:12;55.17;;;35.30;;
3427;SDS011;1727;42.624;23.406;2022-12-16T11:43:02;58.80;;;38.27;;
3427;SDS011;1727;42.624;23.406;2022-12-16T11:45:48;54.33;;;34.13;;
3427;SDS011;1727;42.624;23.406;2022-12-16T11:48:37;54.97;;;35.87;;
3427;SDS011;1727;42.624;23.406;2022-12-16T11:51:27;91.77;;;34.57;;
3427;SDS011;1727;42.624;23.406;2022-12-16T11:54:16;43.73;;;28.97;;
3427;SDS011;1727;42.624;23.406;2022-12-16T11:57:03;46.23;;;29.30;;
3427;SDS011;1727;42.624;23.406;2022-12-16T11:59:59;48.60;;;33.83;;
3427;SDS011;1727;42.624;23.406;2022-12-16T12:02:47;52.13;;;30.93;;
3427;SDS011;1727;42.624;23.406;2022-12-16T12:05:37;44.17;;;29.53;;
3427;SDS011;1727;42.624;23.406;2022-12-16T12:08:27;44.27;;;29.00;;
3427;SDS011;1727;42.624;23.406;2022-12-16T12:11:18;49.47;;;27.53;;
3427;SDS011;1727;42.624;23.406;2022-12-16T12:14:10;39.77;;;27.73;;
3427;SDS011;1727;42.624;23.406;2022-12-16T12:17:04;49.27;;;24.37;;
3427;SDS011;1727;42.624;23.406;2022-12-16T12:20:01;43.20;;;24.10;;
3427;SDS011;1727;42.624;23.406;2022-12-16T12:23:03;27.93;;;16.90;;
3427;SDS011;1727;42.624;23.406;2022-12-16T12:25:51;25.40;;;17.47;;
3427;SDS011;1727;42.624;23.406;2022-12-16T12:29:02;11.20;;;9.57;;
3427;SDS011;1727;42.624;23.406;2022-12-16T12:31:59;15.80;;;12.80;;
3427;SDS011;1727;42.624;23.406;2022-12-16T12:34:51;26.10;;;16.80;;
3427;SDS011;1727;42.624;23.406;2022-12-16T12:37:44;31.67;;;21.80;;
3427;SDS011;1727;42.624;23.406;2022-12-16T12:40:38;40.77;;;22.83;;
3427;SDS011;1727;42.624;23.406;2022-12-16T12:43:29;19.13;;;13.07;;
3427;SDS011;1727;42.624;23.406;2022-12-16T12:46:24;17.53;;;14.00;;
3427;SDS011;1727;42.624;23.406;2022-12-16T12:49:18;9.73;;;8.73;;
3427;SDS011;1727;42.624;23.406;2022-12-16T12:52:20;10.87;;;9.03;;
3427;SDS011;1727;42.624;23.406;2022-12-16T12:55:19;19.60;;;8.50;;
3427;SDS011;1727;42.624;23.406;2022-12-16T12:58:11;10.53;;;8.27;;
3427;SDS011;1727;42.624;23.406;2022-12-16T13:00:56;12.57;;;9.83;;
3427;SDS011;1727;42.624;23.406;2022-12-16T13:03:43;14.77;;;10.50;;
3427;SDS011;1727;42.624;23.406;2022-12-16T13:06:31;32.40;;;21.40;;
3427;SDS011;1727;42.624;23.406;2022-12-16T13:09:24;30.70;;;20.07;;
3427;SDS011;1727;42.624;23.406;2022-12-16T13:12:30;33.93;;;19.17;;
3427;SDS011;1727;42.624;23.406;2022-12-16T13:15:20;44.17;;;27.10;;
3427;SDS011;1727;42.624;23.406;2022-12-16T13:18:21;47.07;;;26.97;;
3427;SDS011;1727;42.624;23.406;2022-12-16T13:24:28;69.63;;;42.60;;
3427;SDS011;1727;42.624;23.406;2022-12-16T13:27:19;32.27;;;21.40;;
3427;SDS011;1727;42.624;23.406;2022-12-16T13:30:16;32.63;;;20.70;;
3427;SDS011;1727;42.624;23.406;2022-12-16T13:33:06;21.10;;;14.73;;
3427;SDS011;1727;42.624;23.406;2022-12-16T13:36:02;16.80;;;12.63;;
3427;SDS011;1727;42.624;23.406;2022-12-16T13:38:47;12.70;;;11.40;;
3427;SDS011;1727;42.624;23.406;2022-12-16T13:41:50;16.90;;;10.83;;
3427;SDS011;1727;42.624;23.406;2022-12-16T13:44:52;18.83;;;11.93;;
3427;SDS011;1727;42.624;23.406;2022-12-16T13:50:43;17.73;;;13.27;;
3427;SDS011;1727;42.624;23.406;2022-12-16T13:53:29;18.47;;;11.40;;
3427;SDS011;1727;42.624;23.406;2022-12-16T13:56:19;10.87;;;9.17;;
3427;SDS011;1727;42.624;23.406;2022-12-16T13:59:10;19.70;;;10.33;;
3427;SDS011;1727;42.624;23.406;2022-12-16T14:02:01;19.30;;;10.60;;
3427;SDS011;1727;42.624;23.406;2022-12-16T14:04:58;13.60;;;10.10;;
3427;SDS011;1727;42.624;23.406;2022-12-16T14:07:58;24.90;;;16.00;;
3427;SDS011;1727;42.624;23.406;2022-12-16T14:10:42;27.13;;;17.93;;
3427;SDS011;1727;42.624;23.406;2022-12-16T14:13:28;21.00;;;14.60;;
3427;SDS011;1727;42.624;23.406;2022-12-16T14:16:18;21.50;;;16.10;;
3427;SDS011;1727;42.624;23.406;2022-12-16T14:19:13;31.23;;;19.60;;
3427;SDS011;1727;42.624;23.406;2022-12-16T14:22:09;23.20;;;13.83;;
3427;SDS011;1727;42.624;23.406;2022-12-16T14:25:10;39.73;;;21.70;;
3427;SDS011;1727;42.624;23.406;2022-12-16T14:27:58;42.53;;;20.83;;
3427;SDS011;1727;42.624;23.406;2022-12-16T14:30:42;25.90;;;16.67;;
3427;SDS011;1727;42.624;23.406;2022-12-16T14:33:27;31.87;;;18.90;;
3427;SDS011;1727;42.624;23.406;2022-12-16T14:36:20;37.37;;;22.60;;
3427;SDS011;1727;42.624;23.406;2022-12-16T14:39:10;38.90;;;19.40;;
3427;SDS011;1727;42.624;23.406;2022-12-16T14:41:56;26.53;;;16.97;;
3427;SDS011;1727;42.624;23.406;2022-12-16T14:44:46;26.80;;;18.50;;
3427;SDS011;1727;42.624;23.406;2022-12-16T14:47:30;16.57;;;12.87;;
3427;SDS011;1727;42.624;23.406;2022-12-16T14:50:19;13.90;;;10.57;;
3427;SDS011;1727;42.624;23.406;2022-12-16T14:53:09;13.70;;;11.03;;
3427;SDS011;1727;42.624;23.406;2022-12-16T14:56:09;15.50;;;10.70;;
3427;SDS011;1727;42.624;23.406;2022-12-16T14:59:07;13.50;;;10.03;;
3427;SDS011;1727;42.624;23.406;2022-12-16T15:01:59;12.27;;;8.60;;
3427;SDS011;1727;42.624;23.406;2022-12-16T15:05:04;11.90;;;9.40;;
3427;SDS011;1727;42.624;23.406;2022-12-16T15:07:49;15.50;;;11.20;;
3427;SDS011;1727;42.624;23.406;2022-12-16T15:10:33;13.33;;;10.03;;
3427;SDS011;1727;42.624;23.406;2022-12-16T15:13:19;24.93;;;11.33;;
3427;SDS011;1727;42.624;23.406;2022-12-16T15:16:04;10.57;;;9.57;;
3427;SDS011;1727;42.624;23.406;2022-12-16T15:18:53;21.07;;;13.67;;
3427;SDS011;1727;42.624;23.406;2022-12-16T15:21:42;15.07;;;11.63;;
3427;SDS011;1727;42.624;23.406;2022-12-16T15:24:34;16.50;;;12.27;;
3427;SDS011;1727;42.624;23.406;2022-12-16T15:27:24;15.20;;;11.40;;
3427;SDS011;1727;42.624;23.406;2022-12-16T15:33:18;14.90;;;10.67;;
3427;SDS011;1727;42.624;23.406;2022-12-16T15:36:04;18.30;;;10.33;;
3427;SDS011;1727;42.624;23.406;2022-12-16T15:38:56;17.43;;;11.10;;
3427;SDS011;1727;42.624;23.406;2022-12-16T15:41:41;11.33;;;9.40;;
3427;SDS011;1727;42.624;23.406;2022-12-16T15:44:30;14.57;;;8.87;;
3427;SDS011;1727;42.624;23.406;2022-12-16T15:47:26;21.87;;;13.77;;
3427;SDS011;1727;42.624;23.406;2022-12-16T15:50:15;19.70;;;10.93;;
3427;SDS011;1727;42.624;23.406;2022-12-16T15:53:16;9.70;;;7.90;;
3427;SDS011;1727;42.624;23.406;2022-12-16T15:56:15;13.70;;;8.77;;
3427;SDS011;1727;42.624;23.406;2022-12-16T15:59:17;14.30;;;11.53;;
3427;SDS011;1727;42.624;23.406;2022-12-16T16:02:08;15.70;;;11.10;;
3427;SDS011;1727;42.624;23.406;2022-12-16T16:05:00;11.00;;;8.27;;
3427;SDS011;1727;42.624;23.406;2022-12-16T16:07:44;35.03;;;17.90;;
3427;SDS011;1727;42.624;23.406;2022-12-16T16:10:29;18.57;;;10.27;;
3427;SDS011;1727;42.624;23.406;2022-12-16T16:13:13;23.77;;;11.60;;
3427;SDS011;1727;42.624;23.406;2022-12-16T16:16:01;23.77;;;12.10;;
3427;SDS011;1727;42.624;23.406;2022-12-16T16:18:46;10.20;;;7.13;;